RYR92KQ LFBL-EGSS
Flight info
| Callsign | RYR92KQ |
|---|---|
| Flight time | 1h 8m |
| Altitude | 34000 |
| Route | BALAN DCT BOKNO UN858 VANAD UN874 BAMES UT191 PODEM/N0407F260 UT191 KORIQ DCT KESAX DCT KUNAV Y8 BANVA |
| Aircraft | B738/M-SDE3FGILRWY/SB1 |
Departure
| Time | 2026-05-07 17:26 |
|---|---|
| Airport | Limoges Airport (LFBL) |
Arrival
| Time | 2026-05-07 18:34 |
|---|---|
| Airport | London Stansted Airport (EGSS) |
| Time | Latitude | Longitude | Altitude | Speed | Heading |
|---|---|---|---|---|---|
| 2026-05-07 16:57 | 45.86203 | 1.17784 | 1314 ft | 0 kts | 74° |
| 2026-05-07 17:19 | 45.86203 | 1.17781 | 1314 ft | 4 kts | 71° |
| 2026-05-07 17:19 | 45.86199 | 1.17763 | 1314 ft | 4 kts | 337° |
| 2026-05-07 17:19 | 45.86178 | 1.17784 | 1249 ft | 4 kts | 316° |
| 2026-05-07 17:20 | 45.86157 | 1.17806 | 1314 ft | 4 kts | 343° |
| 2026-05-07 17:20 | 45.86135 | 1.17806 | 1314 ft | 4 kts | 44° |
| 2026-05-07 17:20 | 45.86128 | 1.17796 | 1314 ft | 1 kts | 53° |
| 2026-05-07 17:20 | 45.86128 | 1.17795 | 1314 ft | 0 kts | 53° |
| 2026-05-07 17:23 | 45.86128 | 1.17798 | 1314 ft | 0 kts | 69° |
| 2026-05-07 17:23 | 45.86124 | 1.17803 | 1314 ft | 1 kts | 127° |
| 2026-05-07 17:23 | 45.86119 | 1.17800 | 1314 ft | 1 kts | 198° |
| 2026-05-07 17:23 | 45.86107 | 1.17788 | 1314 ft | 4 kts | 214° |
| 2026-05-07 17:24 | 45.86069 | 1.17752 | 1314 ft | 10 kts | 213° |
| 2026-05-07 17:24 | 45.85985 | 1.17674 | 1314 ft | 18 kts | 213° |
| 2026-05-07 17:24 | 45.85863 | 1.17559 | 1314 ft | 24 kts | 213° |
| 2026-05-07 17:24 | 45.85709 | 1.17414 | 1314 ft | 28 kts | 213° |
| 2026-05-07 17:25 | 45.85546 | 1.17276 | 1313 ft | 26 kts | 199° |
| 2026-05-07 17:25 | 45.85426 | 1.17253 | 1313 ft | 16 kts | 154° |
| 2026-05-07 17:25 | 45.85395 | 1.17383 | 1312 ft | 16 kts | 56° |
| 2026-05-07 17:25 | 45.85570 | 1.17556 | 1311 ft | 60 kts | 33° |
| 2026-05-07 17:26 | 45.86114 | 1.18065 | 1311 ft | 125 kts | 33° |
| 2026-05-07 17:26 | 45.86995 | 1.18889 | 1384 ft | 170 kts | 33° |
| 2026-05-07 17:26 | 45.87992 | 1.19828 | 2035 ft | 174 kts | 32° |
| 2026-05-07 17:26 | 45.89136 | 1.20250 | 2695 ft | 178 kts | 347° |
| 2026-05-07 17:27 | 45.90256 | 1.19299 | 3033 ft | 204 kts | 316° |
| 2026-05-07 17:27 | 45.91367 | 1.17836 | 3259 ft | 228 kts | 317° |
| 2026-05-07 17:27 | 45.92599 | 1.16257 | 3644 ft | 244 kts | 318° |
| 2026-05-07 17:27 | 45.93910 | 1.14618 | 4118 ft | 260 kts | 319° |
| 2026-05-07 17:28 | 45.95325 | 1.12890 | 4785 ft | 271 kts | 319° |
| 2026-05-07 17:28 | 45.96772 | 1.11152 | 5652 ft | 273 kts | 319° |
| 2026-05-07 17:28 | 45.98234 | 1.09413 | 6478 ft | 276 kts | 320° |
| 2026-05-07 17:28 | 45.99741 | 1.07626 | 7164 ft | 283 kts | 320° |
| 2026-05-07 17:29 | 46.01262 | 1.05834 | 8031 ft | 283 kts | 321° |
| 2026-05-07 17:29 | 46.02802 | 1.04035 | 8793 ft | 288 kts | 323° |
| 2026-05-07 17:29 | 46.04623 | 1.02867 | 9510 ft | 293 kts | 349° |
| 2026-05-07 17:29 | 46.06659 | 1.02725 | 10285 ft | 295 kts | 0° |
| 2026-05-07 17:30 | 46.08781 | 1.02750 | 10587 ft | 317 kts | 0° |
| 2026-05-07 17:30 | 46.11060 | 1.02800 | 10798 ft | 339 kts | 1° |
| 2026-05-07 17:30 | 46.13466 | 1.02851 | 11321 ft | 349 kts | 0° |
| 2026-05-07 17:30 | 46.15910 | 1.02899 | 12025 ft | 353 kts | 0° |
| 2026-05-07 17:31 | 46.18375 | 1.02940 | 12788 ft | 355 kts | 0° |
| 2026-05-07 17:31 | 46.20861 | 1.02974 | 13515 ft | 359 kts | 0° |
| 2026-05-07 17:31 | 46.23374 | 1.03003 | 14231 ft | 363 kts | 0° |
| 2026-05-07 17:31 | 46.25920 | 1.03030 | 14957 ft | 367 kts | 360° |
| 2026-05-07 17:32 | 46.28486 | 1.03058 | 15702 ft | 371 kts | 360° |
| 2026-05-07 17:32 | 46.31047 | 1.03085 | 16364 ft | 375 kts | 360° |
| 2026-05-07 17:32 | 46.33672 | 1.03113 | 17054 ft | 379 kts | 360° |
| 2026-05-07 17:32 | 46.35461 | 1.03131 | 17526 ft | 381 kts | 360° |
| 2026-05-07 17:33 | 46.38999 | 1.03167 | 18396 ft | 386 kts | 360° |
| 2026-05-07 17:33 | 46.41701 | 1.03195 | 19032 ft | 390 kts | 360° |
| 2026-05-07 17:33 | 46.44465 | 1.03225 | 19665 ft | 394 kts | 360° |
| 2026-05-07 17:33 | 46.47215 | 1.03253 | 20254 ft | 397 kts | 360° |
| 2026-05-07 17:34 | 46.49955 | 1.03278 | 20828 ft | 401 kts | 359° |
| 2026-05-07 17:34 | 46.52717 | 1.02726 | 21355 ft | 404 kts | 340° |
| 2026-05-07 17:34 | 46.55291 | 1.01098 | 21960 ft | 404 kts | 334° |
| 2026-05-07 17:34 | 46.57861 | 0.99398 | 22514 ft | 408 kts | 334° |
| 2026-05-07 17:35 | 46.60463 | 0.97698 | 23013 ft | 412 kts | 335° |
| 2026-05-07 17:35 | 46.63088 | 0.96000 | 23521 ft | 415 kts | 335° |
| 2026-05-07 17:35 | 46.65741 | 0.94294 | 24037 ft | 418 kts | 335° |
| 2026-05-07 17:35 | 46.68410 | 0.92584 | 24522 ft | 421 kts | 335° |
| 2026-05-07 17:36 | 46.71099 | 0.90863 | 24980 ft | 424 kts | 335° |
| 2026-05-07 17:36 | 46.73805 | 0.89131 | 25438 ft | 426 kts | 335° |
| 2026-05-07 17:36 | 46.76529 | 0.87386 | 25872 ft | 429 kts | 335° |
| 2026-05-07 17:36 | 46.79268 | 0.85628 | 26302 ft | 432 kts | 335° |
| 2026-05-07 17:37 | 46.82023 | 0.83857 | 26725 ft | 434 kts | 335° |
| 2026-05-07 17:37 | 46.84797 | 0.82071 | 27138 ft | 436 kts | 335° |
| 2026-05-07 17:37 | 46.87581 | 0.80277 | 27529 ft | 439 kts | 335° |
| 2026-05-07 17:37 | 46.90380 | 0.78472 | 27908 ft | 441 kts | 335° |
| 2026-05-07 17:38 | 46.93193 | 0.76654 | 28263 ft | 444 kts | 335° |
| 2026-05-07 17:38 | 46.96027 | 0.74822 | 28617 ft | 446 kts | 335° |
| 2026-05-07 17:38 | 46.98869 | 0.72983 | 28968 ft | 448 kts | 335° |
| 2026-05-07 17:38 | 47.01739 | 0.71179 | 29298 ft | 451 kts | 339° |
| 2026-05-07 17:39 | 47.04772 | 0.69960 | 29612 ft | 455 kts | 348° |
| 2026-05-07 17:39 | 47.07923 | 0.69455 | 29948 ft | 457 kts | 358° |
| 2026-05-07 17:39 | 47.11101 | 0.69655 | 30366 ft | 457 kts | 3° |
| 2026-05-07 17:39 | 47.14263 | 0.70031 | 30821 ft | 455 kts | 4° |
| 2026-05-07 17:40 | 47.17414 | 0.70427 | 31228 ft | 454 kts | 4° |
| 2026-05-07 17:40 | 47.20566 | 0.70810 | 31601 ft | 454 kts | 3° |
| 2026-05-07 17:40 | 47.23716 | 0.71170 | 31971 ft | 454 kts | 3° |
| 2026-05-07 17:40 | 47.26860 | 0.71512 | 32359 ft | 453 kts | 3° |
| 2026-05-07 17:41 | 47.29996 | 0.71842 | 32744 ft | 451 kts | 2° |
| 2026-05-07 17:41 | 47.33127 | 0.72169 | 33077 ft | 451 kts | 2° |
| 2026-05-07 17:41 | 47.36257 | 0.72495 | 33380 ft | 451 kts | 2° |
| 2026-05-07 17:41 | 47.39392 | 0.72823 | 33710 ft | 451 kts | 2° |
| 2026-05-07 17:42 | 47.42518 | 0.73152 | 34001 ft | 451 kts | 2° |
| 2026-05-07 17:42 | 47.45671 | 0.73484 | 33978 ft | 456 kts | 2° |
| 2026-05-07 17:42 | 47.50904 | 0.74427 | 33980 ft | 455 kts | 13° |
| 2026-05-07 17:43 | 47.56876 | 0.77310 | 33988 ft | 450 kts | 18° |
| 2026-05-07 17:43 | 47.63766 | 0.80825 | 33994 ft | 451 kts | 18° |
| 2026-05-07 17:44 | 47.68748 | 0.83308 | 33993 ft | 451 kts | 17° |
| 2026-05-07 17:44 | 47.74718 | 0.86252 | 33991 ft | 452 kts | 17° |
| 2026-05-07 17:45 | 47.80689 | 0.89206 | 33992 ft | 453 kts | 17° |
| 2026-05-07 17:45 | 47.86646 | 0.92171 | 33991 ft | 453 kts | 17° |
| 2026-05-07 17:46 | 47.92572 | 0.95167 | 33991 ft | 453 kts | 18° |
| 2026-05-07 17:46 | 47.98581 | 0.98217 | 33999 ft | 453 kts | 18° |
| 2026-05-07 17:47 | 48.04500 | 1.01224 | 34002 ft | 451 kts | 18° |
| 2026-05-07 17:47 | 48.10481 | 1.04270 | 34001 ft | 451 kts | 18° |
| 2026-05-07 17:48 | 48.16416 | 1.07299 | 34001 ft | 451 kts | 18° |
| 2026-05-07 17:48 | 48.22307 | 1.10311 | 34000 ft | 450 kts | 18° |
| 2026-05-07 17:49 | 48.28273 | 1.13350 | 34000 ft | 450 kts | 18° |
| 2026-05-07 17:49 | 48.34191 | 1.16366 | 33997 ft | 449 kts | 17° |
| 2026-05-07 17:50 | 48.40094 | 1.19386 | 34006 ft | 448 kts | 18° |
| 2026-05-07 17:50 | 48.45995 | 1.22414 | 34011 ft | 448 kts | 18° |
| 2026-05-07 17:51 | 48.51890 | 1.25444 | 34011 ft | 448 kts | 18° |
| 2026-05-07 17:51 | 48.57761 | 1.28455 | 34010 ft | 449 kts | 17° |
| 2026-05-07 17:52 | 48.63681 | 1.31432 | 34015 ft | 448 kts | 17° |
| 2026-05-07 17:52 | 48.69606 | 1.34412 | 34017 ft | 449 kts | 17° |
| 2026-05-07 17:53 | 48.75540 | 1.37412 | 34016 ft | 450 kts | 17° |
| 2026-05-07 17:53 | 48.81476 | 1.40425 | 34019 ft | 450 kts | 17° |
| 2026-05-07 17:54 | 48.87415 | 1.43449 | 34020 ft | 450 kts | 17° |
| 2026-05-07 17:54 | 48.93353 | 1.46478 | 34017 ft | 450 kts | 17° |
| 2026-05-07 17:55 | 48.99345 | 1.49220 | 34008 ft | 449 kts | 9° |
| 2026-05-07 17:55 | 49.05512 | 1.50616 | 34013 ft | 448 kts | 6° |
| 2026-05-07 17:56 | 49.11690 | 1.51931 | 34020 ft | 448 kts | 7° |
| 2026-05-07 17:56 | 49.17859 | 1.53355 | 34026 ft | 448 kts | 7° |
| 2026-05-07 17:57 | 49.23010 | 1.54571 | 34027 ft | 448 kts | 7° |
| 2026-05-07 17:57 | 49.30211 | 1.56227 | 34022 ft | 447 kts | 6° |
| 2026-05-07 17:58 | 49.36335 | 1.57547 | 34022 ft | 447 kts | 6° |
| 2026-05-07 17:58 | 49.42499 | 1.58883 | 34030 ft | 447 kts | 6° |
| 2026-05-07 17:59 | 49.48651 | 1.60231 | 34027 ft | 446 kts | 7° |
| 2026-05-07 17:59 | 49.54800 | 1.61584 | 34035 ft | 446 kts | 7° |
| 2026-05-07 18:00 | 49.60942 | 1.62940 | 34044 ft | 446 kts | 7° |
| 2026-05-07 18:00 | 49.67082 | 1.64298 | 34032 ft | 446 kts | 7° |
| 2026-05-07 18:01 | 49.73234 | 1.65619 | 34038 ft | 446 kts | 4° |
| 2026-05-07 18:01 | 49.79419 | 1.66077 | 34044 ft | 445 kts | 359° |
| 2026-05-07 18:02 | 49.88707 | 1.66390 | 34046 ft | 445 kts | 0° |
| 2026-05-07 18:03 | 49.94908 | 1.66718 | 34048 ft | 446 kts | 0° |
| 2026-05-07 18:03 | 50.01100 | 1.67069 | 34045 ft | 446 kts | 0° |
| 2026-05-07 18:04 | 50.07166 | 1.65941 | 34058 ft | 440 kts | 336° |
| 2026-05-07 18:04 | 50.09855 | 1.63787 | 34032 ft | 437 kts | 323° |
| 2026-05-07 18:04 | 50.12208 | 1.60814 | 34062 ft | 435 kts | 317° |
| 2026-05-07 18:05 | 50.16723 | 1.54526 | 34046 ft | 436 kts | 316° |
| 2026-05-07 18:05 | 50.21249 | 1.48231 | 34047 ft | 436 kts | 317° |
| 2026-05-07 18:06 | 50.25808 | 1.41973 | 34045 ft | 437 kts | 317° |
| 2026-05-07 18:06 | 50.30339 | 1.35774 | 34045 ft | 437 kts | 317° |
| 2026-05-07 18:07 | 50.34912 | 1.29504 | 34048 ft | 437 kts | 317° |
| 2026-05-07 18:07 | 50.39429 | 1.23128 | 34048 ft | 437 kts | 313° |
| 2026-05-07 18:08 | 50.43491 | 1.16101 | 34055 ft | 436 kts | 310° |
| 2026-05-07 18:08 | 50.45479 | 1.12494 | 33931 ft | 439 kts | 309° |
| 2026-05-07 18:08 | 50.47488 | 1.08854 | 33378 ft | 441 kts | 310° |
| 2026-05-07 18:08 | 50.49501 | 1.05241 | 32806 ft | 439 kts | 310° |
| 2026-05-07 18:09 | 50.51508 | 1.01665 | 32373 ft | 434 kts | 310° |
| 2026-05-07 18:09 | 50.53503 | 0.98130 | 31906 ft | 430 kts | 310° |
| 2026-05-07 18:09 | 50.55471 | 0.94652 | 31454 ft | 426 kts | 310° |
| 2026-05-07 18:09 | 50.57438 | 0.91172 | 30996 ft | 423 kts | 310° |
| 2026-05-07 18:10 | 50.59385 | 0.87728 | 30543 ft | 420 kts | 310° |
| 2026-05-07 18:10 | 50.61318 | 0.84304 | 30082 ft | 416 kts | 310° |
| 2026-05-07 18:10 | 50.63233 | 0.80909 | 29632 ft | 413 kts | 310° |
| 2026-05-07 18:10 | 50.65129 | 0.77542 | 29167 ft | 409 kts | 310° |
| 2026-05-07 18:11 | 50.67008 | 0.74198 | 28709 ft | 406 kts | 310° |
| 2026-05-07 18:11 | 50.68272 | 0.71947 | 28393 ft | 404 kts | 310° |
| 2026-05-07 18:11 | 50.70712 | 0.67594 | 27789 ft | 400 kts | 310° |
| 2026-05-07 18:11 | 50.72547 | 0.64316 | 27341 ft | 397 kts | 310° |
| 2026-05-07 18:12 | 50.74365 | 0.61061 | 26895 ft | 394 kts | 310° |
| 2026-05-07 18:12 | 50.76170 | 0.57828 | 26447 ft | 391 kts | 310° |
| 2026-05-07 18:12 | 50.77963 | 0.54612 | 26003 ft | 389 kts | 310° |
| 2026-05-07 18:12 | 50.79742 | 0.51417 | 25567 ft | 386 kts | 310° |
| 2026-05-07 18:13 | 50.81511 | 0.48238 | 25130 ft | 383 kts | 310° |
| 2026-05-07 18:13 | 50.83263 | 0.45082 | 24683 ft | 381 kts | 310° |
| 2026-05-07 18:13 | 50.85006 | 0.41939 | 24247 ft | 379 kts | 310° |
| 2026-05-07 18:13 | 50.86735 | 0.38819 | 23812 ft | 376 kts | 310° |
| 2026-05-07 18:14 | 50.88455 | 0.35711 | 23380 ft | 374 kts | 310° |
| 2026-05-07 18:14 | 50.90164 | 0.32618 | 22947 ft | 372 kts | 310° |
| 2026-05-07 18:14 | 50.91863 | 0.29539 | 22521 ft | 370 kts | 310° |
| 2026-05-07 18:14 | 50.93543 | 0.26494 | 22099 ft | 368 kts | 310° |
| 2026-05-07 18:15 | 50.95226 | 0.23438 | 21673 ft | 367 kts | 310° |
| 2026-05-07 18:15 | 50.96896 | 0.20403 | 21254 ft | 365 kts | 310° |
| 2026-05-07 18:15 | 50.98564 | 0.17368 | 20834 ft | 363 kts | 310° |
| 2026-05-07 18:15 | 51.00218 | 0.14350 | 20415 ft | 361 kts | 310° |
| 2026-05-07 18:16 | 51.01898 | 0.11395 | 20089 ft | 359 kts | 316° |
| 2026-05-07 18:16 | 51.03867 | 0.08951 | 20068 ft | 358 kts | 324° |
| 2026-05-07 18:16 | 51.05892 | 0.06748 | 20047 ft | 347 kts | 325° |
| 2026-05-07 18:16 | 51.07859 | 0.04655 | 20035 ft | 334 kts | 325° |
| 2026-05-07 18:17 | 51.09738 | 0.02647 | 20022 ft | 322 kts | 325° |
| 2026-05-07 18:17 | 51.11553 | 0.00685 | 20035 ft | 309 kts | 324° |
| 2026-05-07 18:17 | 51.13293 | -0.01215 | 20034 ft | 298 kts | 324° |
| 2026-05-07 18:17 | 51.14963 | -0.03051 | 20030 ft | 286 kts | 323° |
| 2026-05-07 18:18 | 51.16568 | -0.04824 | 20034 ft | 275 kts | 323° |
| 2026-05-07 18:18 | 51.18117 | -0.06540 | 19916 ft | 270 kts | 323° |
| 2026-05-07 18:18 | 51.19654 | -0.08246 | 19633 ft | 270 kts | 323° |
| 2026-05-07 18:18 | 51.21207 | -0.09975 | 19263 ft | 274 kts | 323° |
| 2026-05-07 18:19 | 51.22783 | -0.11732 | 18863 ft | 279 kts | 323° |
| 2026-05-07 18:19 | 51.24390 | -0.13525 | 18423 ft | 286 kts | 323° |
| 2026-05-07 18:19 | 51.26048 | -0.15378 | 17569 ft | 306 kts | 323° |
| 2026-05-07 18:19 | 51.27855 | -0.17398 | 16974 ft | 317 kts | 323° |
| 2026-05-07 18:20 | 51.29676 | -0.19435 | 16840 ft | 330 kts | 323° |
| 2026-05-07 18:20 | 51.31603 | -0.21593 | 16654 ft | 344 kts | 324° |
| 2026-05-07 18:20 | 51.33584 | -0.23812 | 16431 ft | 350 kts | 324° |
| 2026-05-07 18:20 | 51.35572 | -0.26040 | 16183 ft | 348 kts | 324° |
| 2026-05-07 18:21 | 51.37542 | -0.28251 | 15987 ft | 344 kts | 324° |
| 2026-05-07 18:21 | 51.39486 | -0.30433 | 15674 ft | 336 kts | 324° |
| 2026-05-07 18:21 | 51.41504 | -0.32239 | 15109 ft | 333 kts | 342° |
| 2026-05-07 18:21 | 51.43631 | -0.32625 | 14755 ft | 326 kts | 5° |
| 2026-05-07 18:22 | 51.45790 | -0.31769 | 14468 ft | 315 kts | 24° |
| 2026-05-07 18:22 | 51.47033 | -0.30642 | 14321 ft | 307 kts | 34° |
| 2026-05-07 18:22 | 51.49291 | -0.27974 | 13891 ft | 298 kts | 38° |
| 2026-05-07 18:22 | 51.50912 | -0.25948 | 13442 ft | 296 kts | 38° |
| 2026-05-07 18:23 | 51.52514 | -0.23936 | 12993 ft | 295 kts | 38° |
| 2026-05-07 18:23 | 51.54130 | -0.21919 | 12552 ft | 293 kts | 38° |
| 2026-05-07 18:23 | 51.55734 | -0.19927 | 12129 ft | 291 kts | 38° |
| 2026-05-07 18:23 | 51.57335 | -0.17948 | 11701 ft | 289 kts | 38° |
| 2026-05-07 18:24 | 51.58924 | -0.15988 | 11294 ft | 286 kts | 38° |
| 2026-05-07 18:24 | 51.59945 | -0.14729 | 11008 ft | 285 kts | 38° |
| 2026-05-07 18:24 | 51.61351 | -0.12997 | 10615 ft | 284 kts | 37° |
| 2026-05-07 18:24 | 51.62906 | -0.11082 | 10213 ft | 282 kts | 37° |
| 2026-05-07 18:25 | 51.64449 | -0.09173 | 9820 ft | 279 kts | 37° |
| 2026-05-07 18:25 | 51.65954 | -0.07322 | 9393 ft | 278 kts | 37° |
| 2026-05-07 18:25 | 51.67478 | -0.05443 | 9064 ft | 272 kts | 37° |
| 2026-05-07 18:25 | 51.69029 | -0.03844 | 8850 ft | 261 kts | 19° |
| 2026-05-07 18:26 | 51.70786 | -0.03520 | 8596 ft | 252 kts | 349° |
| 2026-05-07 18:26 | 51.72355 | -0.04603 | 8285 ft | 246 kts | 320° |
| 2026-05-07 18:26 | 51.73541 | -0.06577 | 7916 ft | 244 kts | 310° |
| 2026-05-07 18:26 | 51.74633 | -0.08671 | 7514 ft | 243 kts | 309° |
| 2026-05-07 18:27 | 51.75695 | -0.10740 | 7144 ft | 242 kts | 309° |
| 2026-05-07 18:27 | 51.76766 | -0.12834 | 6759 ft | 241 kts | 309° |
| 2026-05-07 18:27 | 51.77522 | -0.14252 | 6494 ft | 240 kts | 316° |
| 2026-05-07 18:27 | 51.78461 | -0.15291 | 6182 ft | 242 kts | 338° |
| 2026-05-07 18:28 | 51.80097 | -0.15652 | 5801 ft | 239 kts | 9° |
| 2026-05-07 18:28 | 51.81588 | -0.14576 | 5465 ft | 236 kts | 43° |
| 2026-05-07 18:28 | 51.82612 | -0.11552 | 5048 ft | 239 kts | 84° |
| 2026-05-07 18:28 | 51.82364 | -0.08963 | 4758 ft | 232 kts | 116° |
| 2026-05-07 18:29 | 51.81605 | -0.06686 | 4492 ft | 230 kts | 118° |
| 2026-05-07 18:29 | 51.80847 | -0.04417 | 4212 ft | 228 kts | 118° |
| 2026-05-07 18:29 | 51.80346 | -0.02910 | 4046 ft | 221 kts | 118° |
| 2026-05-07 18:29 | 51.79416 | -0.00102 | 3713 ft | 207 kts | 118° |
| 2026-05-07 18:30 | 51.78969 | 0.01259 | 3555 ft | 199 kts | 118° |
| 2026-05-07 18:30 | 51.78337 | 0.03181 | 3345 ft | 188 kts | 118° |
| 2026-05-07 18:30 | 51.77751 | 0.05015 | 3104 ft | 180 kts | 112° |
| 2026-05-07 18:30 | 51.77721 | 0.06904 | 2965 ft | 171 kts | 63° |
| 2026-05-07 18:31 | 51.78501 | 0.08351 | 2803 ft | 179 kts | 46° |
| 2026-05-07 18:31 | 51.79391 | 0.09748 | 2562 ft | 178 kts | 45° |
| 2026-05-07 18:31 | 51.80286 | 0.11110 | 2324 ft | 176 kts | 44° |
| 2026-05-07 18:31 | 51.81160 | 0.12427 | 2093 ft | 167 kts | 44° |
| 2026-05-07 18:32 | 51.81978 | 0.13659 | 1878 ft | 157 kts | 45° |
| 2026-05-07 18:32 | 51.82749 | 0.14822 | 1693 ft | 151 kts | 45° |
| 2026-05-07 18:32 | 51.83513 | 0.15973 | 1478 ft | 148 kts | 45° |
| 2026-05-07 18:32 | 51.84270 | 0.17101 | 1285 ft | 146 kts | 44° |
| 2026-05-07 18:33 | 51.85004 | 0.18215 | 1066 ft | 147 kts | 47° |
| 2026-05-07 18:33 | 51.85733 | 0.19351 | 879 ft | 146 kts | 50° |
| 2026-05-07 18:33 | 51.86493 | 0.20467 | 716 ft | 148 kts | 44° |
| 2026-05-07 18:33 | 51.87258 | 0.21613 | 490 ft | 149 kts | 46° |
| 2026-05-07 18:34 | 51.88005 | 0.22737 | 339 ft | 140 kts | 52° |
| 2026-05-07 18:34 | 51.88615 | 0.23653 | 341 ft | 95 kts | 43° |
| 2026-05-07 18:34 | 51.88953 | 0.24158 | 352 ft | 38 kts | 43° |
| 2026-05-07 18:34 | 51.89074 | 0.24433 | 350 ft | 27 kts | 65° |
| 2026-05-07 18:35 | 51.89113 | 0.24584 | 353 ft | 9 kts | 68° |
| 2026-05-07 18:35 | 51.89136 | 0.24677 | 349 ft | 9 kts | 68° |
| 2026-05-07 18:35 | 51.89160 | 0.24773 | 349 ft | 10 kts | 68° |
| 2026-05-07 18:35 | 51.89159 | 0.24875 | 354 ft | 9 kts | 111° |
| 2026-05-07 18:36 | 51.89174 | 0.24976 | 354 ft | 11 kts | 44° |
| 2026-05-07 18:36 | 51.89230 | 0.25087 | 359 ft | 14 kts | 58° |
| 2026-05-07 18:36 | 51.89294 | 0.25227 | 356 ft | 17 kts | 42° |
| 2026-05-07 18:36 | 51.89385 | 0.25362 | 351 ft | 19 kts | 43° |
| 2026-05-07 18:37 | 51.89405 | 0.25501 | 355 ft | 10 kts | 129° |
| 2026-05-07 18:37 | 51.89357 | 0.25587 | 355 ft | 10 kts | 128° |
| 2026-05-07 18:37 | 51.89310 | 0.25670 | 355 ft | 10 kts | 131° |
| 2026-05-07 18:37 | 51.89263 | 0.25751 | 360 ft | 10 kts | 133° |
| 2026-05-07 18:38 | 51.89218 | 0.25829 | 351 ft | 9 kts | 133° |
| 2026-05-07 18:38 | 51.89174 | 0.25906 | 351 ft | 9 kts | 133° |
| 2026-05-07 18:38 | 51.89149 | 0.25990 | 355 ft | 9 kts | 65° |
| 2026-05-07 18:38 | 51.89180 | 0.26038 | 356 ft | 3 kts | 42° |
| 2026-05-07 18:39 | 51.89188 | 0.26048 | 351 ft | 0 kts | 41° |